sensor_id;sensor_type;location;lat;lon;timestamp;P1;durP1;ratioP1;P2;durP2;ratioP2
8423;SDS011;4249;49.072;9.770;2022-07-06T00:01:58;2.80;;;2.40;;
8423;SDS011;4249;49.072;9.770;2022-07-06T00:04:47;3.15;;;2.60;;
8423;SDS011;4249;49.072;9.770;2022-07-06T00:07:34;2.35;;;2.15;;
8423;SDS011;4249;49.072;9.770;2022-07-06T00:10:21;3.35;;;2.70;;
8423;SDS011;4249;49.072;9.770;2022-07-06T00:13:08;3.95;;;2.50;;
8423;SDS011;4249;49.072;9.770;2022-07-06T00:15:56;2.53;;;2.30;;
8423;SDS011;4249;49.072;9.770;2022-07-06T00:18:43;2.60;;;2.40;;
8423;SDS011;4249;49.072;9.770;2022-07-06T00:21:32;2.58;;;2.35;;
8423;SDS011;4249;49.072;9.770;2022-07-06T00:24:19;2.78;;;2.58;;
8423;SDS011;4249;49.072;9.770;2022-07-06T00:27:06;2.50;;;2.22;;
8423;SDS011;4249;49.072;9.770;2022-07-06T00:29:53;3.45;;;2.58;;
8423;SDS011;4249;49.072;9.770;2022-07-06T00:32:41;3.05;;;2.70;;
8423;SDS011;4249;49.072;9.770;2022-07-06T00:35:28;3.72;;;2.60;;
8423;SDS011;4249;49.072;9.770;2022-07-06T00:38:17;3.78;;;2.85;;
8423;SDS011;4249;49.072;9.770;2022-07-06T00:41:04;2.70;;;2.50;;
8423;SDS011;4249;49.072;9.770;2022-07-06T00:43:51;4.72;;;2.55;;
8423;SDS011;4249;49.072;9.770;2022-07-06T00:46:40;2.90;;;2.50;;
8423;SDS011;4249;49.072;9.770;2022-07-06T00:49:28;2.92;;;2.47;;
8423;SDS011;4249;49.072;9.770;2022-07-06T00:52:32;3.05;;;2.78;;
8423;SDS011;4249;49.072;9.770;2022-07-06T00:55:22;2.80;;;2.60;;
8423;SDS011;4249;49.072;9.770;2022-07-06T00:58:10;3.08;;;2.70;;
8423;SDS011;4249;49.072;9.770;2022-07-06T01:00:57;2.67;;;2.47;;
8423;SDS011;4249;49.072;9.770;2022-07-06T01:03:45;3.25;;;2.88;;
8423;SDS011;4249;49.072;9.770;2022-07-06T01:06:32;2.85;;;2.53;;
8423;SDS011;4249;49.072;9.770;2022-07-06T01:09:19;2.80;;;2.58;;
8423;SDS011;4249;49.072;9.770;2022-07-06T01:12:08;3.33;;;3.05;;
8423;SDS011;4249;49.072;9.770;2022-07-06T01:14:55;4.30;;;2.72;;
8423;SDS011;4249;49.072;9.770;2022-07-06T01:17:43;4.05;;;3.08;;
8423;SDS011;4249;49.072;9.770;2022-07-06T01:20:32;3.83;;;2.95;;
8423;SDS011;4249;49.072;9.770;2022-07-06T01:23:19;4.78;;;2.72;;
8423;SDS011;4249;49.072;9.770;2022-07-06T01:26:08;2.80;;;2.60;;
8423;SDS011;4249;49.072;9.770;2022-07-06T01:28:56;3.22;;;2.75;;
8423;SDS011;4249;49.072;9.770;2022-07-06T01:31:45;3.75;;;2.63;;
8423;SDS011;4249;49.072;9.770;2022-07-06T01:34:34;3.08;;;2.78;;
8423;SDS011;4249;49.072;9.770;2022-07-06T01:37:22;2.92;;;2.63;;
8423;SDS011;4249;49.072;9.770;2022-07-06T01:40:10;2.70;;;2.50;;
8423;SDS011;4249;49.072;9.770;2022-07-06T01:42:58;2.53;;;2.33;;
8423;SDS011;4249;49.072;9.770;2022-07-06T01:45:46;2.80;;;2.60;;
8423;SDS011;4249;49.072;9.770;2022-07-06T01:48:33;3.25;;;2.95;;
8423;SDS011;4249;49.072;9.770;2022-07-06T01:51:20;3.08;;;2.65;;
8423;SDS011;4249;49.072;9.770;2022-07-06T01:54:09;2.50;;;2.30;;
8423;SDS011;4249;49.072;9.770;2022-07-06T01:56:56;2.58;;;2.38;;
8423;SDS011;4249;49.072;9.770;2022-07-06T01:59:43;5.72;;;2.95;;
8423;SDS011;4249;49.072;9.770;2022-07-06T02:02:31;3.00;;;2.70;;
8423;SDS011;4249;49.072;9.770;2022-07-06T02:05:18;2.90;;;2.70;;
8423;SDS011;4249;49.072;9.770;2022-07-06T02:08:05;4.80;;;2.72;;
8423;SDS011;4249;49.072;9.770;2022-07-06T02:10:54;3.20;;;2.90;;
8423;SDS011;4249;49.072;9.770;2022-07-06T02:13:41;5.60;;;3.03;;
8423;SDS011;4249;49.072;9.770;2022-07-06T02:16:28;3.28;;;2.97;;
8423;SDS011;4249;49.072;9.770;2022-07-06T02:19:16;4.70;;;2.65;;
8423;SDS011;4249;49.072;9.770;2022-07-06T02:22:03;6.43;;;2.95;;
8423;SDS011;4249;49.072;9.770;2022-07-06T02:24:50;3.67;;;2.60;;
8423;SDS011;4249;49.072;9.770;2022-07-06T02:27:38;3.10;;;2.72;;
8423;SDS011;4249;49.072;9.770;2022-07-06T02:30:26;4.22;;;2.83;;
8423;SDS011;4249;49.072;9.770;2022-07-06T02:33:13;5.15;;;2.92;;
8423;SDS011;4249;49.072;9.770;2022-07-06T02:36:00;3.65;;;2.90;;
8423;SDS011;4249;49.072;9.770;2022-07-06T02:38:47;3.00;;;2.80;;
8423;SDS011;4249;49.072;9.770;2022-07-06T02:41:35;3.60;;;3.30;;
8423;SDS011;4249;49.072;9.770;2022-07-06T02:44:24;3.47;;;3.20;;
8423;SDS011;4249;49.072;9.770;2022-07-06T02:47:11;3.38;;;3.08;;
8423;SDS011;4249;49.072;9.770;2022-07-06T02:49:58;3.45;;;2.67;;
8423;SDS011;4249;49.072;9.770;2022-07-06T02:52:46;4.55;;;3.45;;
8423;SDS011;4249;49.072;9.770;2022-07-06T02:55:33;3.45;;;3.15;;
8423;SDS011;4249;49.072;9.770;2022-07-06T02:58:20;3.40;;;3.10;;
8423;SDS011;4249;49.072;9.770;2022-07-06T03:01:09;3.03;;;2.70;;
8423;SDS011;4249;49.072;9.770;2022-07-06T03:03:56;4.78;;;3.05;;
8423;SDS011;4249;49.072;9.770;2022-07-06T03:06:43;3.13;;;2.92;;
8423;SDS011;4249;49.072;9.770;2022-07-06T03:09:30;3.35;;;2.92;;
8423;SDS011;4249;49.072;9.770;2022-07-06T03:12:17;5.73;;;2.93;;
8423;SDS011;4249;49.072;9.770;2022-07-06T03:15:05;3.33;;;3.03;;
8423;SDS011;4249;49.072;9.770;2022-07-06T03:17:56;3.40;;;3.03;;
8423;SDS011;4249;49.072;9.770;2022-07-06T03:20:43;3.50;;;3.20;;
8423;SDS011;4249;49.072;9.770;2022-07-06T03:23:30;5.63;;;3.20;;
8423;SDS011;4249;49.072;9.770;2022-07-06T03:26:18;4.18;;;3.10;;
8423;SDS011;4249;49.072;9.770;2022-07-06T03:29:05;4.55;;;3.40;;
8423;SDS011;4249;49.072;9.770;2022-07-06T03:31:52;5.53;;;3.58;;
8423;SDS011;4249;49.072;9.770;2022-07-06T03:34:41;4.50;;;3.50;;
8423;SDS011;4249;49.072;9.770;2022-07-06T03:37:28;3.30;;;3.00;;
8423;SDS011;4249;49.072;9.770;2022-07-06T03:40:15;3.83;;;3.25;;
8423;SDS011;4249;49.072;9.770;2022-07-06T03:43:02;4.15;;;3.15;;
8423;SDS011;4249;49.072;9.770;2022-07-06T03:45:49;5.75;;;2.90;;
8423;SDS011;4249;49.072;9.770;2022-07-06T03:48:37;2.97;;;2.75;;
8423;SDS011;4249;49.072;9.770;2022-07-06T03:51:25;3.55;;;3.25;;
8423;SDS011;4249;49.072;9.770;2022-07-06T03:54:12;3.17;;;2.80;;
8423;SDS011;4249;49.072;9.770;2022-07-06T03:57:00;4.60;;;3.30;;
8423;SDS011;4249;49.072;9.770;2022-07-06T03:59:47;3.47;;;3.13;;
8423;SDS011;4249;49.072;9.770;2022-07-06T04:02:34;3.75;;;3.45;;
8423;SDS011;4249;49.072;9.770;2022-07-06T04:05:22;3.42;;;3.13;;
8423;SDS011;4249;49.072;9.770;2022-07-06T04:08:10;3.50;;;2.97;;
8423;SDS011;4249;49.072;9.770;2022-07-06T04:10:58;3.40;;;3.10;;
8423;SDS011;4249;49.072;9.770;2022-07-06T04:13:45;6.57;;;3.00;;
8423;SDS011;4249;49.072;9.770;2022-07-06T04:16:32;3.65;;;3.00;;
8423;SDS011;4249;49.072;9.770;2022-07-06T04:19:19;5.85;;;3.35;;
8423;SDS011;4249;49.072;9.770;2022-07-06T04:22:07;3.22;;;2.65;;
8423;SDS011;4249;49.072;9.770;2022-07-06T04:24:55;3.53;;;3.03;;
8423;SDS011;4249;49.072;9.770;2022-07-06T04:27:43;3.55;;;3.25;;
8423;SDS011;4249;49.072;9.770;2022-07-06T04:30:30;4.00;;;3.35;;
8423;SDS011;4249;49.072;9.770;2022-07-06T04:33:17;3.35;;;3.03;;
8423;SDS011;4249;49.072;9.770;2022-07-06T04:36:04;4.72;;;3.38;;
8423;SDS011;4249;49.072;9.770;2022-07-06T04:38:52;3.30;;;3.10;;
8423;SDS011;4249;49.072;9.770;2022-07-06T04:41:40;4.43;;;2.90;;
8423;SDS011;4249;49.072;9.770;2022-07-06T04:44:28;3.28;;;2.90;;
8423;SDS011;4249;49.072;9.770;2022-07-06T04:47:15;4.72;;;3.05;;
8423;SDS011;4249;49.072;9.770;2022-07-06T04:50:04;3.33;;;3.00;;
8423;SDS011;4249;49.072;9.770;2022-07-06T04:52:52;3.55;;;2.88;;
8423;SDS011;4249;49.072;9.770;2022-07-06T04:55:39;3.00;;;2.70;;
8423;SDS011;4249;49.072;9.770;2022-07-06T04:58:27;2.80;;;2.60;;
8423;SDS011;4249;49.072;9.770;2022-07-06T05:01:15;4.32;;;3.15;;
8423;SDS011;4249;49.072;9.770;2022-07-06T05:04:02;3.78;;;2.55;;
8423;SDS011;4249;49.072;9.770;2022-07-06T05:06:49;4.78;;;2.80;;
8423;SDS011;4249;49.072;9.770;2022-07-06T05:09:36;3.72;;;2.90;;
8423;SDS011;4249;49.072;9.770;2022-07-06T05:12:24;3.50;;;3.00;;
8423;SDS011;4249;49.072;9.770;2022-07-06T05:15:12;3.40;;;3.10;;
8423;SDS011;4249;49.072;9.770;2022-07-06T05:17:59;3.78;;;2.85;;
8423;SDS011;4249;49.072;9.770;2022-07-06T05:20:46;3.45;;;3.15;;
8423;SDS011;4249;49.072;9.770;2022-07-06T05:23:34;3.97;;;2.80;;
8423;SDS011;4249;49.072;9.770;2022-07-06T05:26:21;3.65;;;2.95;;
8423;SDS011;4249;49.072;9.770;2022-07-06T05:29:08;3.55;;;3.25;;
8423;SDS011;4249;49.072;9.770;2022-07-06T05:31:57;3.17;;;2.88;;
8423;SDS011;4249;49.072;9.770;2022-07-06T05:34:44;5.55;;;3.13;;
8423;SDS011;4249;49.072;9.770;2022-07-06T05:37:31;3.60;;;3.25;;
8423;SDS011;4249;49.072;9.770;2022-07-06T05:39:59;3.42;;;2.97;;
8423;SDS011;4249;49.072;9.770;2022-07-06T05:42:26;3.08;;;2.70;;
8423;SDS011;4249;49.072;9.770;2022-07-06T05:44:54;3.15;;;2.85;;
8423;SDS011;4249;49.072;9.770;2022-07-06T05:47:22;3.35;;;2.58;;
8423;SDS011;4249;49.072;9.770;2022-07-06T05:50:07;5.80;;;2.97;;
8423;SDS011;4249;49.072;9.770;2022-07-06T05:52:40;3.45;;;2.78;;
8423;SDS011;4249;49.072;9.770;2022-07-06T05:55:08;3.00;;;2.67;;
8423;SDS011;4249;49.072;9.770;2022-07-06T05:57:36;3.33;;;2.83;;
8423;SDS011;4249;49.072;9.770;2022-07-06T06:00:04;4.55;;;3.00;;
8423;SDS011;4249;49.072;9.770;2022-07-06T06:02:40;3.28;;;2.92;;
8423;SDS011;4249;49.072;9.770;2022-07-06T06:05:08;4.28;;;2.33;;
8423;SDS011;4249;49.072;9.770;2022-07-06T06:07:37;4.35;;;2.30;;
8423;SDS011;4249;49.072;9.770;2022-07-06T06:10:05;2.42;;;2.22;;
8423;SDS011;4249;49.072;9.770;2022-07-06T06:12:33;3.85;;;2.50;;
8423;SDS011;4249;49.072;9.770;2022-07-06T06:15:00;3.03;;;2.50;;
8423;SDS011;4249;49.072;9.770;2022-07-06T06:17:28;3.85;;;2.50;;
8423;SDS011;4249;49.072;9.770;2022-07-06T06:19:57;3.58;;;2.40;;
8423;SDS011;4249;49.072;9.770;2022-07-06T06:22:24;6.40;;;2.72;;
8423;SDS011;4249;49.072;9.770;2022-07-06T06:24:51;3.47;;;2.30;;
8423;SDS011;4249;49.072;9.770;2022-07-06T06:27:18;4.97;;;2.33;;
8423;SDS011;4249;49.072;9.770;2022-07-06T06:29:45;4.28;;;2.20;;
8423;SDS011;4249;49.072;9.770;2022-07-06T06:32:12;2.80;;;2.30;;
8423;SDS011;4249;49.072;9.770;2022-07-06T06:34:39;3.10;;;2.22;;
8423;SDS011;4249;49.072;9.770;2022-07-06T06:37:08;3.13;;;2.08;;
8423;SDS011;4249;49.072;9.770;2022-07-06T06:39:35;3.88;;;2.20;;
8423;SDS011;4249;49.072;9.770;2022-07-06T06:42:02;3.67;;;1.90;;
8423;SDS011;4249;49.072;9.770;2022-07-06T06:44:29;3.03;;;2.00;;
8423;SDS011;4249;49.072;9.770;2022-07-06T06:46:56;5.18;;;1.90;;
8423;SDS011;4249;49.072;9.770;2022-07-06T06:49:23;3.10;;;2.00;;
8423;SDS011;4249;49.072;9.770;2022-07-06T06:51:50;3.67;;;2.10;;
8423;SDS011;4249;49.072;9.770;2022-07-06T06:54:18;3.70;;;2.30;;
8423;SDS011;4249;49.072;9.770;2022-07-06T06:56:46;3.97;;;2.28;;
8423;SDS011;4249;49.072;9.770;2022-07-06T06:59:13;3.85;;;2.38;;
8423;SDS011;4249;49.072;9.770;2022-07-06T07:01:40;3.42;;;2.08;;
8423;SDS011;4249;49.072;9.770;2022-07-06T07:04:06;3.17;;;1.88;;
8423;SDS011;4249;49.072;9.770;2022-07-06T07:06:33;3.40;;;2.30;;
8423;SDS011;4249;49.072;9.770;2022-07-06T07:09:00;4.55;;;2.35;;
8423;SDS011;4249;49.072;9.770;2022-07-06T07:11:29;2.30;;;2.10;;
8423;SDS011;4249;49.072;9.770;2022-07-06T07:13:56;3.95;;;2.10;;
8423;SDS011;4249;49.072;9.770;2022-07-06T07:16:25;3.70;;;2.15;;
8423;SDS011;4249;49.072;9.770;2022-07-06T07:18:52;3.80;;;2.08;;
8423;SDS011;4249;49.072;9.770;2022-07-06T07:21:19;2.33;;;2.13;;
8423;SDS011;4249;49.072;9.770;2022-07-06T07:23:46;2.60;;;2.08;;
8423;SDS011;4249;49.072;9.770;2022-07-06T07:26:13;2.55;;;2.33;;
8423;SDS011;4249;49.072;9.770;2022-07-06T07:28:41;4.70;;;2.30;;
8423;SDS011;4249;49.072;9.770;2022-07-06T07:31:08;2.90;;;2.00;;
8423;SDS011;4249;49.072;9.770;2022-07-06T07:33:35;3.90;;;1.83;;
8423;SDS011;4249;49.072;9.770;2022-07-06T07:36:02;4.00;;;2.00;;
8423;SDS011;4249;49.072;9.770;2022-07-06T07:38:30;2.10;;;1.90;;
8423;SDS011;4249;49.072;9.770;2022-07-06T07:40:57;2.38;;;2.17;;
8423;SDS011;4249;49.072;9.770;2022-07-06T07:43:23;2.15;;;1.95;;
8423;SDS011;4249;49.072;9.770;2022-07-06T07:45:52;3.50;;;1.98;;
8423;SDS011;4249;49.072;9.770;2022-07-06T07:48:19;4.75;;;2.30;;
8423;SDS011;4249;49.072;9.770;2022-07-06T07:50:45;3.85;;;2.42;;
8423;SDS011;4249;49.072;9.770;2022-07-06T07:53:12;2.25;;;1.95;;
8423;SDS011;4249;49.072;9.770;2022-07-06T07:55:39;6.03;;;2.33;;
8423;SDS011;4249;49.072;9.770;2022-07-06T07:58:06;5.03;;;2.15;;
8423;SDS011;4249;49.072;9.770;2022-07-06T08:00:33;4.38;;;2.22;;
8423;SDS011;4249;49.072;9.770;2022-07-06T08:03:02;3.97;;;2.47;;
8423;SDS011;4249;49.072;9.770;2022-07-06T08:05:29;4.32;;;2.50;;
8423;SDS011;4249;49.072;9.770;2022-07-06T08:07:56;2.58;;;2.38;;
8423;SDS011;4249;49.072;9.770;2022-07-06T08:10:23;2.83;;;2.58;;
8423;SDS011;4249;49.072;9.770;2022-07-06T08:12:50;4.60;;;2.40;;
8423;SDS011;4249;49.072;9.770;2022-07-06T08:15:17;4.43;;;2.17;;
8423;SDS011;4249;49.072;9.770;2022-07-06T08:17:44;3.38;;;2.45;;
8423;SDS011;4249;49.072;9.770;2022-07-06T08:20:12;3.50;;;2.78;;
8423;SDS011;4249;49.072;9.770;2022-07-06T08:22:41;3.75;;;2.63;;
8423;SDS011;4249;49.072;9.770;2022-07-06T08:25:08;3.50;;;2.65;;
8423;SDS011;4249;49.072;9.770;2022-07-06T08:27:35;4.22;;;2.50;;
8423;SDS011;4249;49.072;9.770;2022-07-06T08:30:03;4.43;;;2.80;;
8423;SDS011;4249;49.072;9.770;2022-07-06T08:32:30;6.05;;;2.80;;
8423;SDS011;4249;49.072;9.770;2022-07-06T08:34:57;3.35;;;2.33;;
8423;SDS011;4249;49.072;9.770;2022-07-06T08:37:25;3.03;;;2.58;;
8423;SDS011;4249;49.072;9.770;2022-07-06T08:39:52;3.17;;;2.47;;
8423;SDS011;4249;49.072;9.770;2022-07-06T08:42:19;3.88;;;2.88;;
8423;SDS011;4249;49.072;9.770;2022-07-06T08:44:47;3.22;;;2.50;;
8423;SDS011;4249;49.072;9.770;2022-07-06T08:47:16;2.92;;;2.42;;
8423;SDS011;4249;49.072;9.770;2022-07-06T08:49:45;2.88;;;2.40;;
8423;SDS011;4249;49.072;9.770;2022-07-06T08:52:12;4.75;;;2.70;;
8423;SDS011;4249;49.072;9.770;2022-07-06T08:54:41;4.22;;;2.58;;
8423;SDS011;4249;49.072;9.770;2022-07-06T08:57:09;4.68;;;2.60;;
8423;SDS011;4249;49.072;9.770;2022-07-06T08:59:35;3.22;;;2.50;;
8423;SDS011;4249;49.072;9.770;2022-07-06T09:02:04;3.55;;;2.90;;
8423;SDS011;4249;49.072;9.770;2022-07-06T09:04:31;3.58;;;2.75;;
8423;SDS011;4249;49.072;9.770;2022-07-06T09:06:59;3.38;;;2.88;;
8423;SDS011;4249;49.072;9.770;2022-07-06T09:09:26;4.03;;;2.72;;
8423;SDS011;4249;49.072;9.770;2022-07-06T09:11:58;5.28;;;2.80;;
8423;SDS011;4249;49.072;9.770;2022-07-06T09:14:25;2.75;;;2.55;;
8423;SDS011;4249;49.072;9.770;2022-07-06T09:17:00;4.22;;;2.85;;
8423;SDS011;4249;49.072;9.770;2022-07-06T09:19:29;2.72;;;2.53;;
8423;SDS011;4249;49.072;9.770;2022-07-06T09:21:56;2.70;;;2.50;;
8423;SDS011;4249;49.072;9.770;2022-07-06T09:24:24;3.42;;;2.33;;
8423;SDS011;4249;49.072;9.770;2022-07-06T09:26:51;2.88;;;2.58;;
8423;SDS011;4249;49.072;9.770;2022-07-06T09:29:25;3.15;;;2.45;;
8423;SDS011;4249;49.072;9.770;2022-07-06T09:31:57;4.10;;;2.95;;
8423;SDS011;4249;49.072;9.770;2022-07-06T09:34:39;2.97;;;2.50;;
8423;SDS011;4249;49.072;9.770;2022-07-06T09:37:08;3.20;;;2.38;;
8423;SDS011;4249;49.072;9.770;2022-07-06T09:39:35;5.03;;;2.38;;
8423;SDS011;4249;49.072;9.770;2022-07-06T09:42:03;4.65;;;2.80;;
8423;SDS011;4249;49.072;9.770;2022-07-06T09:44:33;3.47;;;2.40;;
8423;SDS011;4249;49.072;9.770;2022-07-06T09:47:03;4.75;;;2.63;;
8423;SDS011;4249;49.072;9.770;2022-07-06T09:49:31;2.78;;;2.40;;
8423;SDS011;4249;49.072;9.770;2022-07-06T09:51:59;3.63;;;2.47;;
8423;SDS011;4249;49.072;9.770;2022-07-06T09:54:27;2.92;;;2.30;;
8423;SDS011;4249;49.072;9.770;2022-07-06T09:56:55;6.15;;;2.78;;
8423;SDS011;4249;49.072;9.770;2022-07-06T09:59:23;3.00;;;2.20;;
8423;SDS011;4249;49.072;9.770;2022-07-06T10:01:54;4.03;;;2.65;;
8423;SDS011;4249;49.072;9.770;2022-07-06T10:04:22;3.25;;;2.30;;
8423;SDS011;4249;49.072;9.770;2022-07-06T10:06:50;6.32;;;2.70;;
8423;SDS011;4249;49.072;9.770;2022-07-06T10:09:19;6.00;;;2.95;;
8423;SDS011;4249;49.072;9.770;2022-07-06T10:11:49;6.25;;;2.30;;
8423;SDS011;4249;49.072;9.770;2022-07-06T10:14:18;2.45;;;2.20;;
8423;SDS011;4249;49.072;9.770;2022-07-06T10:16:47;2.88;;;2.13;;
8423;SDS011;4249;49.072;9.770;2022-07-06T10:19:16;3.78;;;2.38;;
8423;SDS011;4249;49.072;9.770;2022-07-06T10:21:44;3.28;;;2.35;;
8423;SDS011;4249;49.072;9.770;2022-07-06T10:24:11;3.65;;;2.42;;
8423;SDS011;4249;49.072;9.770;2022-07-06T10:26:39;5.20;;;2.63;;
8423;SDS011;4249;49.072;9.770;2022-07-06T10:29:07;3.47;;;2.35;;
8423;SDS011;4249;49.072;9.770;2022-07-06T10:31:35;4.22;;;2.40;;
8423;SDS011;4249;49.072;9.770;2022-07-06T10:34:06;3.17;;;2.63;;
8423;SDS011;4249;49.072;9.770;2022-07-06T10:36:39;3.03;;;2.22;;
8423;SDS011;4249;49.072;9.770;2022-07-06T10:39:07;3.67;;;2.53;;
8423;SDS011;4249;49.072;9.770;2022-07-06T10:41:52;3.92;;;2.50;;
8423;SDS011;4249;49.072;9.770;2022-07-06T10:44:20;3.38;;;2.72;;
8423;SDS011;4249;49.072;9.770;2022-07-06T10:46:51;3.72;;;2.53;;
8423;SDS011;4249;49.072;9.770;2022-07-06T10:49:19;3.45;;;2.53;;
8423;SDS011;4249;49.072;9.770;2022-07-06T10:51:48;4.47;;;2.65;;
8423;SDS011;4249;49.072;9.770;2022-07-06T10:54:16;6.70;;;2.60;;
8423;SDS011;4249;49.072;9.770;2022-07-06T10:56:45;5.28;;;2.53;;
8423;SDS011;4249;49.072;9.770;2022-07-06T10:59:13;5.60;;;2.97;;
8423;SDS011;4249;49.072;9.770;2022-07-06T11:01:42;2.95;;;2.47;;
8423;SDS011;4249;49.072;9.770;2022-07-06T11:04:42;3.35;;;2.30;;
8423;SDS011;4249;49.072;9.770;2022-07-06T11:07:11;5.53;;;3.22;;
8423;SDS011;4249;49.072;9.770;2022-07-06T11:09:39;3.45;;;2.22;;
8423;SDS011;4249;49.072;9.770;2022-07-06T11:12:16;6.03;;;2.80;;
8423;SDS011;4249;49.072;9.770;2022-07-06T11:14:45;3.72;;;2.35;;
8423;SDS011;4249;49.072;9.770;2022-07-06T11:17:15;4.28;;;2.50;;
8423;SDS011;4249;49.072;9.770;2022-07-06T11:19:49;3.47;;;2.50;;
8423;SDS011;4249;49.072;9.770;2022-07-06T11:22:16;9.25;;;2.78;;
8423;SDS011;4249;49.072;9.770;2022-07-06T11:24:44;3.85;;;2.60;;
8423;SDS011;4249;49.072;9.770;2022-07-06T11:27:12;3.00;;;2.70;;
8423;SDS011;4249;49.072;9.770;2022-07-06T11:29:40;3.60;;;2.38;;
8423;SDS011;4249;49.072;9.770;2022-07-06T11:32:08;4.53;;;2.38;;
8423;SDS011;4249;49.072;9.770;2022-07-06T11:34:38;3.22;;;2.47;;
8423;SDS011;4249;49.072;9.770;2022-07-06T11:37:06;3.90;;;2.30;;
8423;SDS011;4249;49.072;9.770;2022-07-06T11:39:36;4.05;;;2.70;;
8423;SDS011;4249;49.072;9.770;2022-07-06T11:42:05;2.67;;;2.17;;
8423;SDS011;4249;49.072;9.770;2022-07-06T11:44:32;3.08;;;2.35;;
8423;SDS011;4249;49.072;9.770;2022-07-06T11:47:00;3.28;;;2.80;;
8423;SDS011;4249;49.072;9.770;2022-07-06T11:49:29;4.78;;;2.33;;
8423;SDS011;4249;49.072;9.770;2022-07-06T11:51:57;4.15;;;2.35;;
8423;SDS011;4249;49.072;9.770;2022-07-06T11:54:24;3.40;;;2.55;;
8423;SDS011;4249;49.072;9.770;2022-07-06T11:56:53;5.72;;;2.60;;
8423;SDS011;4249;49.072;9.770;2022-07-06T11:59:21;5.00;;;2.30;;
8423;SDS011;4249;49.072;9.770;2022-07-06T12:01:50;2.65;;;2.45;;
8423;SDS011;4249;49.072;9.770;2022-07-06T12:04:24;3.30;;;2.60;;
8423;SDS011;4249;49.072;9.770;2022-07-06T12:06:51;4.60;;;2.13;;
8423;SDS011;4249;49.072;9.770;2022-07-06T12:09:20;4.53;;;2.38;;
8423;SDS011;4249;49.072;9.770;2022-07-06T12:11:47;5.07;;;2.40;;
8423;SDS011;4249;49.072;9.770;2022-07-06T12:14:15;3.65;;;2.40;;
8423;SDS011;4249;49.072;9.770;2022-07-06T12:16:43;2.25;;;2.08;;
8423;SDS011;4249;49.072;9.770;2022-07-06T12:19:11;3.05;;;2.20;;
8423;SDS011;4249;49.072;9.770;2022-07-06T12:21:42;3.75;;;2.30;;
8423;SDS011;4249;49.072;9.770;2022-07-06T12:24:16;4.90;;;2.28;;
8423;SDS011;4249;49.072;9.770;2022-07-06T12:26:45;4.10;;;2.30;;
8423;SDS011;4249;49.072;9.770;2022-07-06T12:29:12;4.40;;;2.67;;
8423;SDS011;4249;49.072;9.770;2022-07-06T12:31:40;4.28;;;2.30;;
8423;SDS011;4249;49.072;9.770;2022-07-06T12:34:12;4.03;;;2.40;;
8423;SDS011;4249;49.072;9.770;2022-07-06T12:36:44;7.88;;;2.30;;
8423;SDS011;4249;49.072;9.770;2022-07-06T12:39:11;6.47;;;2.63;;
8423;SDS011;4249;49.072;9.770;2022-07-06T12:41:43;3.67;;;2.25;;
8423;SDS011;4249;49.072;9.770;2022-07-06T12:44:13;5.25;;;2.13;;
8423;SDS011;4249;49.072;9.770;2022-07-06T12:46:42;2.30;;;2.10;;
8423;SDS011;4249;49.072;9.770;2022-07-06T12:49:14;5.25;;;1.67;;
8423;SDS011;4249;49.072;9.770;2022-07-06T12:51:48;3.20;;;1.92;;
8423;SDS011;4249;49.072;9.770;2022-07-06T12:54:16;3.00;;;1.90;;
8423;SDS011;4249;49.072;9.770;2022-07-06T12:57:01;4.28;;;2.40;;
8423;SDS011;4249;49.072;9.770;2022-07-06T12:59:33;4.15;;;2.50;;
8423;SDS011;4249;49.072;9.770;2022-07-06T13:02:05;2.97;;;2.00;;
8423;SDS011;4249;49.072;9.770;2022-07-06T13:04:33;2.65;;;2.28;;
8423;SDS011;4249;49.072;9.770;2022-07-06T13:07:00;3.08;;;2.17;;
8423;SDS011;4249;49.072;9.770;2022-07-06T13:09:28;4.82;;;2.38;;
8423;SDS011;4249;49.072;9.770;2022-07-06T13:11:56;4.57;;;2.15;;
8423;SDS011;4249;49.072;9.770;2022-07-06T13:14:24;4.47;;;2.70;;
8423;SDS011;4249;49.072;9.770;2022-07-06T13:16:51;2.33;;;2.08;;
8423;SDS011;4249;49.072;9.770;2022-07-06T13:19:19;2.10;;;1.90;;
8423;SDS011;4249;49.072;9.770;2022-07-06T13:21:45;2.90;;;2.15;;
8423;SDS011;4249;49.072;9.770;2022-07-06T13:24:13;3.05;;;1.80;;
8423;SDS011;4249;49.072;9.770;2022-07-06T13:26:40;2.92;;;2.00;;
8423;SDS011;4249;49.072;9.770;2022-07-06T13:29:07;2.40;;;2.17;;
8423;SDS011;4249;49.072;9.770;2022-07-06T13:31:37;4.55;;;2.38;;
8423;SDS011;4249;49.072;9.770;2022-07-06T13:34:05;5.00;;;2.47;;
8423;SDS011;4249;49.072;9.770;2022-07-06T13:36:33;4.72;;;2.40;;
8423;SDS011;4249;49.072;9.770;2022-07-06T13:39:00;7.18;;;2.70;;
8423;SDS011;4249;49.072;9.770;2022-07-06T13:41:28;4.25;;;2.30;;
8423;SDS011;4249;49.072;9.770;2022-07-06T13:43:54;12.07;;;2.53;;
8423;SDS011;4249;49.072;9.770;2022-07-06T13:46:21;3.13;;;2.08;;
8423;SDS011;4249;49.072;9.770;2022-07-06T13:48:50;2.78;;;2.33;;
8423;SDS011;4249;49.072;9.770;2022-07-06T13:51:16;3.70;;;2.50;;
8423;SDS011;4249;49.072;9.770;2022-07-06T13:53:44;3.40;;;2.40;;
8423;SDS011;4249;49.072;9.770;2022-07-06T13:56:11;5.40;;;2.50;;
8423;SDS011;4249;49.072;9.770;2022-07-06T13:58:38;4.25;;;2.53;;
8423;SDS011;4249;49.072;9.770;2022-07-06T14:01:05;4.63;;;2.67;;
8423;SDS011;4249;49.072;9.770;2022-07-06T14:03:32;4.75;;;2.70;;
8423;SDS011;4249;49.072;9.770;2022-07-06T14:06:01;4.53;;;2.22;;
8423;SDS011;4249;49.072;9.770;2022-07-06T14:08:29;2.92;;;2.72;;
8423;SDS011;4249;49.072;9.770;2022-07-06T14:10:56;3.75;;;2.50;;
8423;SDS011;4249;49.072;9.770;2022-07-06T14:13:23;6.82;;;3.28;;
8423;SDS011;4249;49.072;9.770;2022-07-06T14:15:50;3.10;;;2.55;;
8423;SDS011;4249;49.072;9.770;2022-07-06T14:18:17;4.28;;;2.88;;
8423;SDS011;4249;49.072;9.770;2022-07-06T14:20:44;3.92;;;2.85;;
8423;SDS011;4249;49.072;9.770;2022-07-06T14:23:12;2.97;;;2.40;;
8423;SDS011;4249;49.072;9.770;2022-07-06T14:25:40;2.85;;;2.35;;
8423;SDS011;4249;49.072;9.770;2022-07-06T14:28:07;3.38;;;2.35;;
8423;SDS011;4249;49.072;9.770;2022-07-06T14:30:35;3.05;;;2.20;;
8423;SDS011;4249;49.072;9.770;2022-07-06T14:33:03;5.25;;;2.38;;
8423;SDS011;4249;49.072;9.770;2022-07-06T14:35:33;3.72;;;2.35;;
8423;SDS011;4249;49.072;9.770;2022-07-06T14:38:00;3.55;;;2.17;;
8423;SDS011;4249;49.072;9.770;2022-07-06T14:40:29;4.88;;;2.10;;
8423;SDS011;4249;49.072;9.770;2022-07-06T14:42:56;3.63;;;2.40;;
8423;SDS011;4249;49.072;9.770;2022-07-06T14:45:23;3.38;;;2.33;;
8423;SDS011;4249;49.072;9.770;2022-07-06T14:47:50;2.30;;;2.10;;
8423;SDS011;4249;49.072;9.770;2022-07-06T14:50:21;5.50;;;2.60;;
8423;SDS011;4249;49.072;9.770;2022-07-06T14:52:49;2.63;;;2.08;;
8423;SDS011;4249;49.072;9.770;2022-07-06T14:55:16;3.67;;;2.20;;
8423;SDS011;4249;49.072;9.770;2022-07-06T14:57:45;5.47;;;2.30;;
8423;SDS011;4249;49.072;9.770;2022-07-06T15:00:12;2.33;;;1.83;;
8423;SDS011;4249;49.072;9.770;2022-07-06T15:02:40;3.75;;;2.10;;
8423;SDS011;4249;49.072;9.770;2022-07-06T15:05:08;2.40;;;1.80;;
8423;SDS011;4249;49.072;9.770;2022-07-06T15:07:35;6.95;;;2.50;;
8423;SDS011;4249;49.072;9.770;2022-07-06T15:10:03;2.97;;;1.95;;
8423;SDS011;4249;49.072;9.770;2022-07-06T15:12:51;4.18;;;2.00;;
8423;SDS011;4249;49.072;9.770;2022-07-06T15:15:39;2.83;;;2.00;;
8423;SDS011;4249;49.072;9.770;2022-07-06T15:18:26;3.33;;;2.28;;
8423;SDS011;4249;49.072;9.770;2022-07-06T15:21:13;9.15;;;2.10;;
8423;SDS011;4249;49.072;9.770;2022-07-06T15:24:00;3.17;;;2.08;;
8423;SDS011;4249;49.072;9.770;2022-07-06T15:26:47;2.10;;;1.90;;
8423;SDS011;4249;49.072;9.770;2022-07-06T15:29:36;3.42;;;2.15;;
8423;SDS011;4249;49.072;9.770;2022-07-06T15:32:23;4.47;;;2.00;;
8423;SDS011;4249;49.072;9.770;2022-07-06T15:35:11;3.55;;;2.60;;
8423;SDS011;4249;49.072;9.770;2022-07-06T15:37:58;5.22;;;2.85;;
8423;SDS011;4249;49.072;9.770;2022-07-06T15:40:45;5.22;;;3.72;;
8423;SDS011;4249;49.072;9.770;2022-07-06T15:43:35;3.53;;;2.28;;
8423;SDS011;4249;49.072;9.770;2022-07-06T15:46:24;2.08;;;1.88;;
8423;SDS011;4249;49.072;9.770;2022-07-06T15:49:12;2.72;;;1.70;;
8423;SDS011;4249;49.072;9.770;2022-07-06T15:52:00;3.20;;;2.10;;
8423;SDS011;4249;49.072;9.770;2022-07-06T15:54:47;8.48;;;2.03;;
8423;SDS011;4249;49.072;9.770;2022-07-06T15:57:35;3.35;;;1.70;;
8423;SDS011;4249;49.072;9.770;2022-07-06T16:00:22;2.78;;;1.80;;
8423;SDS011;4249;49.072;9.770;2022-07-06T16:03:11;2.78;;;1.90;;
8423;SDS011;4249;49.072;9.770;2022-07-06T16:05:59;2.80;;;1.90;;
8423;SDS011;4249;49.072;9.770;2022-07-06T16:08:47;4.18;;;1.80;;